Time;durP1;ratioP1;P1;durP2;ratioP2;P2;SDS_P1;SDS_P2;PMS_P1;PMS_P2;Temp;Humidity;BMP_temperature;BMP_pressure;BME280_temperature;BME280_humidity;BME280_pressure;Samples;Min_cycle;Max_cycle;Signal;HPM_P1;HPM_P2
2022/12/29 00:00:14;;;;;;;19.40;13.40;;;;;;;-2.33;100.00;99525.53;6245033;23;20708;-80
2022/12/29 00:02:41;;;;;;;19.60;13.93;;;;;;;-2.38;100.00;99521.69;6246706;23;20212;-80
2022/12/29 00:05:08;;;;;;;19.30;13.57;;;;;;;-2.41;100.00;99528.03;6219647;23;20283;-79
2022/12/29 00:07:35;;;;;;;20.57;14.03;;;;;;;-2.34;100.00;99530.94;6220404;23;20204;-80
2022/12/29 00:10:01;;;;;;;19.53;13.60;;;;;;;-2.35;100.00;99530.09;6247399;23;20211;-80
2022/12/29 00:15:36;;;;;;;19.13;13.27;;;;;;;-2.45;100.00;99518.78;6218144;23;20583;-78
2022/12/29 00:18:00;;;;;;;17.63;13.67;;;;;;;-2.51;100.00;99508.84;6245336;23;20262;-80
2022/12/29 00:36:59;;;;;;;14.83;11.27;;;;;;;-2.78;100.00;99534.94;6245409;23;20212;-78
2022/12/29 00:44:46;;;;;;;14.57;11.00;;;;;;;-2.94;100.00;99537.28;6218236;23;20653;-79
2022/12/29 00:47:13;;;;;;;13.97;10.00;;;;;;;-2.89;100.00;99556.06;6218700;23;20677;-79
2022/12/29 00:49:40;;;;;;;14.00;10.57;;;;;;;-2.87;100.00;99554.94;6245313;23;20266;-80
2022/12/29 00:52:09;;;;;;;16.37;11.60;;;;;;;-2.98;100.00;99548.97;6243031;23;20201;-78
2022/12/29 00:54:37;;;;;;;15.23;11.10;;;;;;;-2.94;100.00;99561.69;6245075;23;20208;-79
2022/12/29 00:57:06;;;;;;;15.63;11.10;;;;;;;-2.99;100.00;99561.28;6218784;23;20266;-79
2022/12/29 00:59:35;;;;;;;15.90;10.80;;;;;;;-2.97;100.00;99563.75;6218429;23;20280;-78
2022/12/29 01:02:02;;;;;;;13.87;10.17;;;;;;;-3.07;100.00;99565.50;6218451;23;20205;-79
2022/12/29 01:04:29;;;;;;;14.33;10.07;;;;;;;-3.07;100.00;99560.28;6217858;23;20228;-78
2022/12/29 01:06:55;;;;;;;15.57;10.23;;;;;;;-3.04;100.00;99562.66;6244867;23;20208;-78
2022/12/29 01:12:09;;;;;;;15.13;10.10;;;;;;;-3.15;100.00;99561.78;6196419;23;20209;-78
2022/12/29 01:14:36;;;;;;;13.33;10.07;;;;;;;-3.19;100.00;99563.03;6245111;23;20212;-78
2022/12/29 01:17:04;;;;;;;15.90;10.37;;;;;;;-3.15;100.00;99556.53;6220020;23;20197;-78
2022/12/29 01:19:31;;;;;;;17.17;10.47;;;;;;;-3.17;100.00;99553.22;6220295;23;20215;-78
2022/12/29 01:21:59;;;;;;;15.17;10.73;;;;;;;-3.19;100.00;99563.03;6219501;23;20550;-78
2022/12/29 01:24:27;;;;;;;15.50;10.30;;;;;;;-3.36;100.00;99557.59;6205014;23;20250;-78
2022/12/29 01:26:54;;;;;;;13.87;10.20;;;;;;;-3.31;100.00;99555.41;6245947;23;20181;-78
2022/12/29 01:29:21;;;;;;;15.13;10.47;;;;;;;-3.17;100.00;99560.25;6220173;23;20266;-78
2022/12/29 01:31:49;;;;;;;14.83;10.37;;;;;;;-3.28;100.00;99557.75;6245456;23;20205;-79
2022/12/29 01:34:17;;;;;;;16.67;11.20;;;;;;;-3.24;100.00;99552.13;6220349;23;20205;-80
2022/12/29 01:36:43;;;;;;;17.20;10.67;;;;;;;-3.32;100.00;99554.59;6220927;23;20250;-79
2022/12/29 01:39:11;;;;;;;12.53;10.30;;;;;;;-3.33;100.00;99557.31;6195233;23;20227;-79
2022/12/29 01:41:38;;;;;;;15.40;10.50;;;;;;;-3.33;100.00;99558.16;6195305;23;20254;-79
2022/12/29 01:44:42;;;;;;;16.97;11.07;;;;;;;-3.33;100.00;99552.91;6246710;23;20209;-78
2022/12/29 01:47:09;;;;;;;14.93;10.83;;;;;;;-3.35;100.00;99554.00;6246244;23;20295;-78
2022/12/29 01:49:35;;;;;;;18.00;11.53;;;;;;;-3.35;100.00;99552.22;6246258;23;20243;-78
2022/12/29 01:52:06;;;;;;;13.97;11.33;;;;;;;-3.31;100.00;99556.22;6219244;23;20202;-77
2022/12/29 01:54:41;;;;;;;15.70;11.80;;;;;;;-3.33;100.00;99545.06;6219933;23;20212;-78
2022/12/29 01:57:14;;;;;;;17.07;11.57;;;;;;;-3.11;100.00;99557.94;6246228;23;20219;-78
2022/12/29 01:59:46;;;;;;;17.77;11.10;;;;;;;-3.25;100.00;99537.34;6219457;23;20661;-79
2022/12/29 02:02:13;;;;;;;14.47;10.40;;;;;;;-3.18;100.00;99548.13;6218575;23;20200;-78
2022/12/29 02:04:44;;;;;;;15.53;11.20;;;;;;;-3.13;100.00;99538.06;6193426;23;20200;-78
2022/12/29 02:07:18;;;;;;;15.77;11.30;;;;;;;-3.26;100.00;99543.53;6067943;23;20208;-79
2022/12/29 02:09:48;;;;;;;15.43;11.57;;;;;;;-3.33;100.00;99539.00;6067311;23;20982;-79
2022/12/29 02:12:16;;;;;;;17.83;12.57;;;;;;;-3.39;100.00;99524.63;6067268;23;20263;-79
2022/12/29 02:14:43;;;;;;;15.80;11.70;;;;;;;-3.32;100.00;99527.56;6043845;23;20590;-80
2022/12/29 02:17:41;;;;;;;17.90;12.93;;;;;;;-3.29;100.00;99524.66;6067612;23;20219;-79
2022/12/29 02:20:23;;;;;;;18.90;12.10;;;;;;;-3.32;100.00;99517.91;6091238;23;20212;-79
2022/12/29 02:22:52;;;;;;;18.30;12.03;;;;;;;-3.33;100.00;99513.63;6067721;23;20262;-79
2022/12/29 02:25:42;;;;;;;17.80;13.23;;;;;;;-3.18;100.00;99511.44;6092593;23;20672;-78
2022/12/29 02:28:31;;;;;;;16.50;12.17;;;;;;;-3.27;100.00;99525.34;6105238;23;20270;-78
2022/12/29 02:31:26;;;;;;;15.57;11.77;;;;;;;-3.24;100.00;99522.47;6067237;23;20208;-79
2022/12/29 02:33:56;;;;;;;14.83;11.67;;;;;;;-3.24;100.00;99519.84;6092889;23;20208;-78
2022/12/29 02:36:37;;;;;;;19.23;12.87;;;;;;;-3.20;100.00;99518.59;6092374;23;20212;-79
2022/12/29 02:39:07;;;;;;;17.63;11.90;;;;;;;-3.27;100.00;99528.81;6091155;23;20669;-78
2022/12/29 02:41:42;;;;;;;19.53;13.13;;;;;;;-3.29;100.00;99541.19;6092739;23;20283;-78
2022/12/29 02:44:26;;;;;;;18.57;12.23;;;;;;;-3.33;100.00;99531.97;6066756;23;20212;-78
2022/12/29 02:47:08;;;;;;;15.70;11.83;;;;;;;-3.39;100.00;99532.47;6091094;23;20224;-78
2022/12/29 02:49:44;;;;;;;18.80;14.03;;;;;;;-3.41;100.00;99531.81;6168528;23;20287;-78
2022/12/29 02:52:16;;;;;;;18.40;12.97;;;;;;;-3.42;100.00;99524.06;6092641;23;20593;-78
2022/12/29 02:54:43;;;;;;;16.87;12.50;;;;;;;-3.44;100.00;99524.19;6067044;23;20204;-77
2022/12/29 02:57:35;;;;;;;14.67;11.33;;;;;;;-3.45;100.00;99532.22;6043871;23;20262;-78
2022/12/29 03:00:08;;;;;;;14.87;11.10;;;;;;;-3.47;100.00;99521.84;6043138;23;20680;-77
2022/12/29 03:02:56;;;;;;;14.03;11.03;;;;;;;-3.43;100.00;99528.47;6067018;23;20208;-77
2022/12/29 03:05:32;;;;;;;15.67;11.17;;;;;;;-3.54;100.00;99533.81;6154658;23;20208;-78
2022/12/29 03:08:14;;;;;;;14.73;11.07;;;;;;;-3.48;100.00;99527.22;6066917;23;20204;-78
2022/12/29 03:10:52;;;;;;;15.90;10.97;;;;;;;-3.53;100.00;99526.78;6092067;23;20266;-78
2022/12/29 03:16:21;;;;;;;15.90;11.70;;;;;;;-3.50;100.00;99519.50;6192798;23;20259;-78
2022/12/29 03:18:58;;;;;;;15.10;12.70;;;;;;;-3.48;100.00;99532.44;6065481;23;20238;-77
2022/12/29 03:24:40;;;;;;;16.07;11.83;;;;;;;-3.48;100.00;99521.97;6173100;23;20214;-78
2022/12/29 03:27:10;;;;;;;16.53;12.47;;;;;;;-3.50;100.00;99519.50;6067212;23;20282;-80
2022/12/29 03:29:43;;;;;;;17.63;12.30;;;;;;;-3.52;100.00;99520.59;6193860;23;20254;-80
2022/12/29 03:32:12;;;;;;;15.40;11.40;;;;;;;-3.55;100.00;99513.84;6043446;23;20266;-78
2022/12/29 03:34:39;;;;;;;16.67;11.07;;;;;;;-3.56;100.00;99517.41;6067483;23;20266;-79
2022/12/29 03:37:12;;;;;;;14.53;11.40;;;;;;;-3.57;100.00;99518.38;6067494;23;20591;-80
2022/12/29 03:39:40;;;;;;;15.77;11.17;;;;;;;-3.59;100.00;99510.63;6193899;23;20216;-79
2022/12/29 03:42:13;;;;;;;15.97;10.77;;;;;;;-3.59;100.00;99518.50;6067106;23;20295;-79
2022/12/29 03:44:42;;;;;;;17.77;10.97;;;;;;;-3.59;100.00;99521.09;6043319;23;20219;-80
2022/12/29 03:47:12;;;;;;;14.63;11.23;;;;;;;-3.53;100.00;99525.00;6192734;23;20271;-80
2022/12/29 03:49:40;;;;;;;15.30;10.63;;;;;;;-3.58;100.00;99519.31;6044690;23;20212;-80
2022/12/29 03:52:07;;;;;;;15.70;10.97;;;;;;;-3.63;100.00;99526.75;6091725;23;20207;-78
2022/12/29 03:54:40;;;;;;;15.60;11.50;;;;;;;-3.56;100.00;99533.13;6054441;23;20215;-80
2022/12/29 03:57:07;;;;;;;15.13;10.90;;;;;;;-3.60;100.00;99540.44;6194220;23;20212;-80
2022/12/29 03:59:45;;;;;;;15.57;11.60;;;;;;;-3.55;100.00;99540.81;6070135;23;20218;-80
2022/12/29 04:02:11;;;;;;;14.67;11.30;;;;;;;-3.61;100.00;99538.75;6193259;23;20227;-79
2022/12/29 04:04:40;;;;;;;16.73;11.40;;;;;;;-3.63;100.00;99538.06;6193133;23;20211;-79
2022/12/29 04:07:06;;;;;;;16.03;11.73;;;;;;;-3.64;100.00;99533.75;6092505;23;20216;-79
2022/12/29 04:09:33;;;;;;;14.90;11.40;;;;;;;-3.64;100.00;99528.53;6191364;23;20212;-78
2022/12/29 04:12:00;;;;;;;16.77;12.03;;;;;;;-3.63;100.00;99524.97;6192081;23;20208;-77
2022/12/29 04:14:27;;;;;;;14.87;11.43;;;;;;;-3.60;100.00;99536.97;6192808;23;20259;-78
2022/12/29 04:16:55;;;;;;;15.33;12.07;;;;;;;-3.71;100.00;99532.66;6044823;23;20208;-77
2022/12/29 04:19:22;;;;;;;17.43;11.67;;;;;;;-3.67;100.00;99536.66;6192370;23;20227;-78
2022/12/29 04:21:49;;;;;;;15.70;10.80;;;;;;;-3.64;100.00;99532.97;6193079;23;20212;-77
2022/12/29 04:24:16;;;;;;;16.43;11.57;;;;;;;-3.75;100.00;99526.03;6192134;23;20215;-77
2022/12/29 04:26:44;;;;;;;17.23;11.17;;;;;;;-3.72;100.00;99530.16;6217760;23;20218;-77
2022/12/29 04:29:40;;;;;;;15.93;10.87;;;;;;;-3.71;100.00;99530.03;6111115;23;20291;-77
2022/12/29 04:32:45;;;;;;;16.60;11.30;;;;;;;-3.71;100.00;99529.19;6105490;23;20208;-77
2022/12/29 04:35:11;;;;;;;16.40;11.13;;;;;;;-3.70;100.00;99515.16;6217797;23;20295;-78
2022/12/29 04:37:38;;;;;;;16.87;11.43;;;;;;;-3.59;100.00;99534.19;6193255;23;20668;-77
2022/12/29 04:40:06;;;;;;;16.33;11.37;;;;;;;-3.60;100.00;99524.72;6191874;23;20212;-77
2022/12/29 04:42:32;;;;;;;14.50;11.07;;;;;;;-3.67;100.00;99535.81;6192303;23;20597;-78
2022/12/29 04:44:59;;;;;;;14.47;10.53;;;;;;;-3.58;100.00;99535.88;6192465;23;20216;-77
2022/12/29 04:47:36;;;;;;;14.77;10.53;;;;;;;-3.75;100.00;99526.03;6192365;23;20254;-77
2022/12/29 04:50:21;;;;;;;12.33;9.87;;;;;;;-3.75;100.00;99523.41;6090224;23;20671;-77
2022/12/29 04:52:53;;;;;;;14.23;10.53;;;;;;;-3.71;100.00;99527.41;6194530;23;20243;-77
2022/12/29 04:55:20;;;;;;;14.77;10.20;;;;;;;-3.79;100.00;99522.00;6194905;23;20200;-77
2022/12/29 04:57:47;;;;;;;12.47;10.20;;;;;;;-3.85;100.00;99519.91;6092829;23;20215;-78
2022/12/29 05:00:17;;;;;;;14.40;10.47;;;;;;;-3.84;100.00;99525.97;6195523;23;20665;-76
2022/12/29 05:02:44;;;;;;;15.77;10.83;;;;;;;-3.84;100.00;99520.75;6194015;23;20208;-77
2022/12/29 05:05:11;;;;;;;15.13;9.83;;;;;;;-3.88;100.00;99520.19;6220276;23;20208;-77
2022/12/29 05:07:41;;;;;;;15.70;10.67;;;;;;;-3.90;100.00;99518.63;6244027;23;20208;-77
2022/12/29 05:10:08;;;;;;;15.00;9.97;;;;;;;-3.87;100.00;99527.06;6219242;23;20254;-78
2022/12/29 05:12:37;;;;;;;17.43;11.70;;;;;;;-3.74;100.00;99525.06;6219887;23;20731;-77
2022/12/29 05:15:05;;;;;;;21.03;13.37;;;;;;;-3.88;100.00;99527.22;6220498;23;20189;-77
2022/12/29 05:17:33;;;;;;;21.43;12.80;;;;;;;-3.91;100.00;99528.28;6220062;23;20550;-78
2022/12/29 05:20:00;;;;;;;18.93;12.40;;;;;;;-3.92;100.00;99537.13;6218213;23;20645;-78
2022/12/29 05:22:26;;;;;;;18.47;12.10;;;;;;;-3.84;100.00;99528.59;6219605;23;20649;-77
2022/12/29 05:24:54;;;;;;;19.30;12.33;;;;;;;-3.99;100.00;99525.50;6217723;23;20205;-77
2022/12/29 05:27:22;;;;;;;20.67;12.93;;;;;;;-4.03;100.00;99526.72;6092234;23;20212;-78
2022/12/29 05:30:17;;;;;;;17.20;11.73;;;;;;;-4.00;100.00;99531.69;6231963;23;20204;-77
2022/12/29 05:32:44;;;;;;;18.90;11.70;;;;;;;-4.03;100.00;99532.78;6245339;23;20193;-78
2022/12/29 05:35:11;;;;;;;15.70;11.23;;;;;;;-4.09;100.00;99528.06;6245307;23;20573;-78
2022/12/29 05:37:37;;;;;;;17.73;12.27;;;;;;;-4.02;100.00;99541.47;6219813;23;20205;-77
2022/12/29 05:40:05;;;;;;;17.20;11.80;;;;;;;-3.95;100.00;99549.59;6218244;23;20300;-76
2022/12/29 05:42:33;;;;;;;18.43;11.97;;;;;;;-4.12;100.00;99544.03;6092336;23;20215;-77
2022/12/29 05:45:38;;;;;;;16.43;11.70;;;;;;;-4.10;100.00;99551.72;6213766;23;20201;-77
2022/12/29 05:48:23;;;;;;;16.83;11.80;;;;;;;-3.93;100.00;99545.09;6213221;23;20548;-78
2022/12/29 05:51:22;;;;;;;16.10;11.17;;;;;;;-3.79;100.00;99536.88;6203993;23;20204;-77
2022/12/29 05:53:51;;;;;;;18.60;12.63;;;;;;;-3.81;100.00;99537.00;6219478;23;20208;-78
2022/12/29 05:56:18;;;;;;;21.13;14.90;;;;;;;-3.80;100.00;99538.69;6218582;23;20208;-77
2022/12/29 05:58:51;;;;;;;24.33;16.57;;;;;;;-3.74;100.00;99530.31;6217946;23;20212;-77
2022/12/29 06:01:18;;;;;;;34.47;22.77;;;;;;;-3.66;100.00;99543.56;6243494;23;20216;-77
2022/12/29 06:03:45;;;;;;;32.53;20.83;;;;;;;-3.57;100.00;99552.41;6219241;23;20590;-78
2022/12/29 06:06:15;;;;;;;31.60;21.80;;;;;;;-3.41;100.00;99551.94;6244095;23;20208;-76
2022/12/29 06:08:42;;;;;;;38.37;23.40;;;;;;;-3.39;100.00;99550.00;6092120;23;20208;-78
2022/12/29 06:11:09;;;;;;;29.83;20.77;;;;;;;-3.35;100.00;99548.75;6219348;23;20255;-77
2022/12/29 06:13:36;;;;;;;25.20;16.30;;;;;;;-3.27;100.00;99551.56;6193852;23;20212;-77
2022/12/29 06:16:03;;;;;;;18.27;13.13;;;;;;;-3.22;100.00;99554.59;6090917;23;20287;-76
2022/12/29 06:18:30;;;;;;;19.43;14.37;;;;;;;-3.11;100.00;99559.72;6219195;23;20228;-77
2022/12/29 06:21:01;;;;;;;20.30;13.70;;;;;;;-3.00;100.00;99561.41;6218591;23;20500;-77
2022/12/29 06:23:27;;;;;;;21.87;15.43;;;;;;;-2.85;100.00;99545.16;6218892;23;20205;-77
2022/12/29 06:25:54;;;;;;;22.30;15.83;;;;;;;-2.70;100.00;99546.38;6218894;23;20201;-77
2022/12/29 06:28:21;;;;;;;23.67;17.57;;;;;;;-2.57;100.00;99553.19;6244517;23;20221;-77
2022/12/29 06:30:48;;;;;;;28.33;20.40;;;;;;;-2.46;100.00;99537.28;6215676;23;20215;-77
2022/12/29 06:33:16;;;;;;;25.20;18.23;;;;;;;-2.43;100.00;99537.00;6092053;23;20208;-77
2022/12/29 06:35:43;;;;;;;22.87;17.30;;;;;;;-2.32;100.00;99550.81;6218843;23;20713;-77
2022/12/29 06:38:10;;;;;;;20.03;15.33;;;;;;;-2.26;100.00;99555.50;6218107;23;20638;-77
2022/12/29 06:40:37;;;;;;;23.57;15.80;;;;;;;-2.18;100.00;99557.41;6245298;23;20285;-77
2022/12/29 06:43:03;;;;;;;21.23;15.23;;;;;;;-2.07;100.00;99548.56;6246002;23;20757;-77
2022/12/29 06:45:53;;;;;;;20.00;15.23;;;;;;;-1.90;100.00;99548.66;6188955;23;20201;-78
2022/12/29 06:48:19;;;;;;;21.20;15.10;;;;;;;-1.90;100.00;99566.19;6244954;23;20233;-77
2022/12/29 06:50:46;;;;;;;23.77;16.27;;;;;;;-1.87;100.00;99566.72;6245696;23;20208;-77
2022/12/29 06:53:13;;;;;;;22.63;17.80;;;;;;;-1.79;100.00;99571.31;6245158;23;20734;-77
2022/12/29 06:55:41;;;;;;;24.93;17.23;;;;;;;-1.75;100.00;99570.03;6245043;23;20201;-77
2022/12/29 06:58:08;;;;;;;23.17;17.20;;;;;;;-1.68;100.00;99571.09;6245043;23;20263;-77
2022/12/29 07:00:34;;;;;;;20.03;15.40;;;;;;;-1.64;100.00;99576.94;6245511;23;20201;-78
2022/12/29 07:03:01;;;;;;;17.67;13.43;;;;;;;-1.59;100.00;99580.78;6217902;23;20658;-77
2022/12/29 07:05:31;;;;;;;17.33;12.90;;;;;;;-1.46;100.00;99583.09;6230372;23;20196;-77
2022/12/29 07:07:58;;;;;;;18.30;13.30;;;;;;;-1.44;100.00;99578.50;6219564;23;20279;-77
2022/12/29 07:10:24;;;;;;;22.40;13.77;;;;;;;-1.36;100.00;99581.25;6218433;23;20211;-78
2022/12/29 07:12:51;;;;;;;20.30;14.67;;;;;;;-1.33;100.00;99575.69;6245126;23;20208;-78
2022/12/29 07:15:18;;;;;;;20.30;14.27;;;;;;;-1.24;100.00;99566.09;6245355;23;20283;-77
2022/12/29 07:17:44;;;;;;;25.77;15.87;;;;;;;-1.11;100.00;99563.94;6245284;23;20201;-77
2022/12/29 07:20:11;;;;;;;23.47;14.93;;;;;;;-1.03;100.00;99569.31;6245033;23;20680;-79
2022/12/29 07:22:38;;;;;;;25.23;15.17;;;;;;;-1.02;100.00;99569.16;6246044;23;20185;-78
2022/12/29 07:25:05;;;;;;;26.60;16.03;;;;;;;-1.02;100.00;99566.53;6193939;23;20205;-77
2022/12/29 07:27:32;;;;;;;24.77;15.50;;;;;;;-0.84;100.00;99550.75;6246074;23;20181;-78
2022/12/29 07:29:59;;;;;;;21.40;15.47;;;;;;;-0.77;100.00;99556.28;6245277;23;20283;-78
2022/12/29 07:32:25;;;;;;;23.23;16.00;;;;;;;-0.65;100.00;99563.78;6244872;23;20242;-78
2022/12/29 07:34:52;;;;;;;23.27;15.23;;;;;;;-0.54;100.00;99565.38;6245317;23;20547;-77
2022/12/29 07:37:18;;;;;;;21.17;14.23;;;;;;;-0.45;100.00;99573.19;6218624;23;20211;-79
2022/12/29 07:39:45;;;;;;;19.70;13.60;;;;;;;-0.36;100.00;99581.16;6245925;23;20211;-78
2022/12/29 07:42:12;;;;;;;19.40;13.60;;;;;;;-0.28;100.00;99571.53;6244963;23;20728;-77
2022/12/29 07:44:43;;;;;;;16.53;12.20;;;;;;;-0.23;100.00;99560.53;6218530;23;20208;-78
2022/12/29 07:47:21;;;;;;;17.53;12.20;;;;;;;-0.14;100.00;99573.59;6245434;23;20207;-78
2022/12/29 07:49:47;;;;;;;15.87;11.93;;;;;;;-0.16;100.00;99566.84;6207503;23;20252;-78
2022/12/29 07:52:14;;;;;;;19.13;12.93;;;;;;;-0.12;100.00;99579.56;6241609;23;20205;-78
2022/12/29 07:54:40;;;;;;;16.93;12.60;;;;;;;-0.06;100.00;99578.13;6245308;23;20200;-79
2022/12/29 07:57:07;;;;;;;15.63;11.60;;;;;;;-0.06;100.00;99571.06;6242046;23;20211;-78
2022/12/29 07:59:34;;;;;;;17.20;12.23;;;;;;;-0.02;100.00;99571.56;6245222;23;20207;-78
2022/12/29 08:02:00;;;;;;;17.33;12.10;;;;;;;0.05;100.00;99569.16;6243574;23;20205;-78
2022/12/29 08:04:27;;;;;;;18.00;13.00;;;;;;;0.05;100.00;99563.91;6244377;23;20263;-78
2022/12/29 08:06:54;;;;;;;17.67;12.37;;;;;;;0.13;100.00;99563.94;6244541;23;20551;-78
2022/12/29 08:09:21;;;;;;;18.23;12.43;;;;;;;0.21;100.00;99564.00;6243524;23;20213;-78
2022/12/29 08:11:50;;;;;;;18.97;12.37;;;;;;;0.33;100.00;99570.63;6244056;23;20212;-78
2022/12/29 08:14:17;;;;;;;17.33;12.57;;;;;;;0.37;100.00;99575.44;6241630;23;20211;-78
2022/12/29 08:16:43;;;;;;;18.50;12.10;;;;;;;0.48;100.00;99574.34;6244986;23;20211;-78
2022/12/29 08:19:11;;;;;;;18.13;12.43;;;;;;;0.49;100.00;99573.38;6245091;23;20204;-79
2022/12/29 08:21:38;;;;;;;19.40;13.50;;;;;;;0.54;100.00;99573.75;6244693;23;20207;-78
2022/12/29 08:24:05;;;;;;;17.17;12.93;;;;;;;0.58;100.00;99576.88;6215168;23;20207;-77
2022/12/29 08:26:32;;;;;;;17.10;13.07;;;;;;;0.68;100.00;99577.59;6245513;23;20740;-78
2022/12/29 08:28:59;;;;;;;20.47;13.93;;;;;;;0.76;100.00;99577.63;6246269;23;20256;-78
2022/12/29 08:31:25;;;;;;;18.00;13.00;;;;;;;0.91;100.00;99583.13;6249278;23;20216;-78
2022/12/29 08:33:52;;;;;;;20.70;12.90;;;;;;;0.99;100.00;99578.72;6247687;23;20209;-79
2022/12/29 08:36:19;;;;;;;18.60;13.00;;;;;;;0.98;100.00;99576.25;6247876;23;20275;-78
2022/12/29 08:38:45;;;;;;;16.57;13.07;;;;;;;1.06;100.00;99578.91;6221997;23;20211;-79
2022/12/29 08:41:12;;;;;;;16.33;13.17;;;;;;;1.16;100.00;99582.25;6218539;23;20201;-79
2022/12/29 08:43:39;;;;;;;18.57;13.47;;;;;;;1.30;100.00;99587.72;6236284;23;20212;-79
2022/12/29 08:46:05;;;;;;;19.70;13.43;;;;;;;1.36;100.00;99580.94;6246711;23;20211;-79
2022/12/29 08:48:32;;;;;;;17.63;13.10;;;;;;;1.43;100.00;99573.22;6247213;23;20712;-79
2022/12/29 08:50:59;;;;;;;17.50;13.63;;;;;;;1.49;100.00;99575.22;6247038;23;20209;-78
2022/12/29 08:53:25;;;;;;;19.27;13.73;;;;;;;1.52;100.00;99577.53;6246701;23;20209;-77
2022/12/29 08:55:57;;;;;;;19.43;13.80;;;;;;;1.60;100.00;99577.53;6245957;23;20696;-79
2022/12/29 08:58:34;;;;;;;18.47;13.17;;;;;;;1.65;100.00;99578.69;6219657;23;20680;-78
2022/12/29 09:01:01;;;;;;;19.60;14.23;;;;;;;1.68;100.00;99582.84;6217286;23;20208;-78
2022/12/29 09:03:27;;;;;;;17.70;13.77;;;;;;;1.66;100.00;99579.53;6191968;23;20231;-78
2022/12/29 09:06:15;;;;;;;18.27;13.93;;;;;;;1.71;100.00;99569.28;6246334;23;20229;-80
2022/12/29 09:08:43;;;;;;;18.67;14.00;;;;;;;1.77;100.00;99579.22;6247306;23;20559;-79
2022/12/29 09:11:21;;;;;;;19.57;14.23;;;;;;;1.86;100.00;99587.97;6246985;23;20205;-78
2022/12/29 09:13:53;;;;;;;20.17;14.07;;;;;;;1.88;100.00;99573.56;6219928;23;20209;-78
2022/12/29 09:16:21;;;;;;;19.13;14.60;;;;;;;2.01;100.00;99567.78;6220644;23;20201;-78
2022/12/29 09:18:48;;;;;;;18.90;14.13;;;;;;;2.10;100.00;99566.81;6220778;23;20213;-79
2022/12/29 09:21:15;;;;;;;21.17;15.17;;;;;;;2.17;100.00;99562.50;6246448;23;20210;-78
2022/12/29 09:23:41;;;;;;;19.57;14.13;;;;;;;2.14;100.00;99555.75;6219652;23;20552;-77
2022/12/29 09:26:08;;;;;;;18.23;14.37;;;;;;;2.26;100.00;99545.63;6244350;23;20211;-77
2022/12/29 09:28:35;;;;;;;21.77;16.00;;;;;;;2.27;100.00;99531.41;6245466;23;20208;-79
2022/12/29 09:31:02;;;;;;;21.43;15.80;;;;;;;2.37;100.00;99529.41;6244898;23;20209;-78
2022/12/29 09:33:29;;;;;;;21.30;15.90;;;;;;;2.47;100.00;99532.66;6246210;23;20212;-77
2022/12/29 09:35:57;;;;;;;21.43;15.40;;;;;;;2.52;100.00;99533.00;6244823;23;20288;-78
2022/12/29 09:38:25;;;;;;;22.67;16.53;;;;;;;2.56;100.00;99534.31;6245658;23;20212;-79
2022/12/29 09:40:55;;;;;;;21.03;16.07;;;;;;;2.56;100.00;99531.69;6194456;23;20215;-78
2022/12/29 09:43:51;;;;;;;21.90;17.10;;;;;;;2.72;100.00;99528.13;6218197;23;20677;-78
2022/12/29 09:46:29;;;;;;;20.97;16.23;;;;;;;2.72;100.00;99525.47;6219163;23;20780;-77
2022/12/29 09:49:42;;;;;;;21.07;15.40;;;;;;;2.74;100.00;99527.97;6194162;23;20275;-77
2022/12/29 09:52:21;;;;;;;23.13;16.27;;;;;;;2.75;100.00;99527.81;6208586;23;20208;-77
2022/12/29 09:54:57;;;;;;;23.13;16.83;;;;;;;2.89;100.00;99529.69;6218906;23;20215;-78
2022/12/29 09:57:48;;;;;;;23.97;18.97;;;;;;;2.87;100.00;99530.88;6219450;23;20204;-78
2022/12/29 10:00:23;;;;;;;24.43;17.87;;;;;;;2.86;100.00;99524.75;6244814;23;20232;-77
2022/12/29 10:02:59;;;;;;;24.93;18.07;;;;;;;2.86;100.00;99518.63;6219040;23;20200;-78
2022/12/29 10:05:36;;;;;;;22.13;16.00;;;;;;;2.90;100.00;99518.13;6192415;23;20215;-77
2022/12/29 10:08:15;;;;;;;21.70;16.07;;;;;;;2.91;100.00;99518.94;6066918;23;20653;-77
2022/12/29 10:10:53;;;;;;;20.70;15.53;;;;;;;2.89;100.00;99521.75;6092248;23;20208;-79
2022/12/29 10:13:21;;;;;;;22.10;16.53;;;;;;;2.92;100.00;99512.66;6066903;23;20661;-79
2022/12/29 10:16:11;;;;;;;21.93;16.70;;;;;;;3.07;100.00;99489.75;6092736;23;20278;-78
2022/12/29 10:19:04;;;;;;;23.63;17.73;;;;;;;3.18;100.00;99489.34;6066232;23;20295;-78
2022/12/29 10:21:49;;;;;;;23.53;16.63;;;;;;;3.14;100.00;99485.41;6094211;23;20899;-77
2022/12/29 10:24:17;;;;;;;22.27;16.53;;;;;;;3.15;100.00;99486.22;6091650;23;20266;-78
2022/12/29 10:26:45;;;;;;;21.63;16.13;;;;;;;3.16;100.00;99491.34;6092010;23;20212;-78
2022/12/29 10:29:22;;;;;;;23.77;17.30;;;;;;;3.19;100.00;99492.81;6092424;23;20219;-78
2022/12/29 10:32:00;;;;;;;23.47;17.00;;;;;;;3.19;100.00;99496.28;6092688;23;20207;-79
2022/12/29 10:34:36;;;;;;;23.37;17.37;;;;;;;3.15;100.00;99505.56;6067782;23;20258;-79
2022/12/29 10:37:14;;;;;;;23.63;17.13;;;;;;;3.26;100.00;99496.41;6045911;23;20218;-80
2022/12/29 10:39:53;;;;;;;22.97;17.03;;;;;;;3.33;100.00;99495.53;6068939;23;20216;-80
2022/12/29 10:42:28;;;;;;;22.47;17.10;;;;;;;3.34;100.00;99496.34;6067341;23;20292;-80
2022/12/29 10:44:56;;;;;;;25.70;17.67;;;;;;;3.30;100.00;99500.34;6066725;23;20211;-80
2022/12/29 10:47:27;;;;;;;24.43;17.90;;;;;;;3.27;100.00;99492.75;6046214;23;20212;-79
2022/12/29 10:49:54;;;;;;;24.80;18.23;;;;;;;3.31;100.00;99494.88;6093362;23;20207;-79
2022/12/29 10:52:22;;;;;;;26.50;18.23;;;;;;;3.31;100.00;99497.50;6093700;23;20282;-79
2022/12/29 10:55:05;;;;;;;26.00;18.50;;;;;;;3.28;100.00;99495.22;6044433;23;20593;-79
2022/12/29 10:57:44;;;;;;;26.10;18.60;;;;;;;3.25;100.00;99489.47;6068758;23;20270;-79
2022/12/29 11:00:14;;;;;;;27.37;18.97;;;;;;;3.26;100.00;99494.59;6069047;23;20657;-79
2022/12/29 11:02:51;;;;;;;25.33;18.53;;;;;;;3.25;100.00;99492.94;6069670;23;20212;-79
2022/12/29 11:05:35;;;;;;;23.67;17.77;;;;;;;3.33;100.00;99498.19;6094520;23;20216;-79
2022/12/29 11:08:08;;;;;;;22.13;16.97;;;;;;;3.42;100.00;99502.41;6168485;23;20211;-78
2022/12/29 11:10:40;;;;;;;23.10;17.70;;;;;;;3.46;100.00;99487.81;6095622;23;20223;-79
2022/12/29 11:13:10;;;;;;;24.43;18.83;;;;;;;3.50;100.00;99488.28;6095199;23;20220;-79
2022/12/29 11:15:55;;;;;;;26.90;18.80;;;;;;;3.51;100.00;99476.69;6095153;23;20283;-80
2022/12/29 11:18:37;;;;;;;24.83;18.90;;;;;;;3.68;100.00;99480.84;6093982;23;20208;-78
2022/12/29 11:21:25;;;;;;;24.40;18.13;;;;;;;3.83;100.00;99481.69;6094394;23;20211;-80
2022/12/29 11:24:01;;;;;;;25.87;18.73;;;;;;;3.99;100.00;99488.69;6094199;23;20208;-80
2022/12/29 11:26:29;;;;;;;25.17;17.53;;;;;;;3.99;100.00;99483.38;6068177;23;20219;-80
2022/12/29 11:29:15;;;;;;;22.90;18.03;;;;;;;4.01;100.00;99477.91;6094026;23;20587;-80
2022/12/29 11:31:49;;;;;;;25.77;18.60;;;;;;;4.01;100.00;99476.06;6094244;23;20687;-80
2022/12/29 11:34:33;;;;;;;24.63;18.30;;;;;;;4.02;100.00;99480.34;6093523;23;20229;-80
2022/12/29 11:37:03;;;;;;;23.80;18.97;;;;;;;3.69;100.00;99486.97;6069044;23;20270;-80
2022/12/29 11:39:41;;;;;;;25.83;18.63;;;;;;;3.74;100.00;99490.72;6094494;23;20228;-81
2022/12/29 11:42:17;;;;;;;26.90;19.30;;;;;;;3.68;100.00;99486.16;6068482;23;20267;-80
2022/12/29 11:44:46;;;;;;;25.57;18.90;;;;;;;3.72;100.00;99476.00;6194599;23;20244;-80
2022/12/29 11:47:46;;;;;;;25.70;19.30;;;;;;;3.71;100.00;99466.41;6067803;23;20204;-78
2022/12/29 11:50:24;;;;;;;27.50;19.77;;;;;;;3.75;100.00;99465.88;6190310;23;20234;-79
2022/12/29 11:52:58;;;;;;;26.80;19.53;;;;;;;3.36;100.00;99454.63;6067578;23;20212;-80
2022/12/29 11:55:26;;;;;;;25.43;18.53;;;;;;;3.55;100.00;99460.25;6093141;23;20215;-79
2022/12/29 11:57:54;;;;;;;26.07;19.47;;;;;;;3.61;100.00;99458.72;6067559;23;20215;-79
2022/12/29 12:00:26;;;;;;;27.33;20.23;;;;;;;3.68;100.00;99459.66;6092680;23;20267;-78
2022/12/29 12:03:11;;;;;;;26.27;19.23;;;;;;;3.61;100.00;99456.06;6092711;23;20224;-79
2022/12/29 12:05:52;;;;;;;28.67;20.80;;;;;;;3.59;100.00;99462.56;6195768;23;20228;-79